createdAt,value
2019-06-26T00:00:55.961Z,4.87
2019-06-26T00:03:24.278Z,4.80
2019-06-26T00:05:52.484Z,5.05
2019-06-26T00:08:20.646Z,5.22
2019-06-26T00:10:48.829Z,4.80
2019-06-26T00:13:26.140Z,4.50
2019-06-26T00:15:46.974Z,5.12
2019-06-26T00:18:15.133Z,5.30
2019-06-26T00:20:43.376Z,5.85
2019-06-26T00:23:11.612Z,5.30
2019-06-26T00:25:39.817Z,5.28
2019-06-26T00:28:07.992Z,5.30
2019-06-26T00:30:37.088Z,5.35
2019-06-26T00:33:05.327Z,5.03
2019-06-26T00:35:33.711Z,5.40
2019-06-26T00:38:01.828Z,5.12
2019-06-26T00:40:30.170Z,5.80
2019-06-26T00:42:58.388Z,5.55
2019-06-26T00:45:26.614Z,6.05
2019-06-26T00:47:54.893Z,5.35
2019-06-26T00:50:23.659Z,5.72
2019-06-26T00:52:51.910Z,5.17
2019-06-26T00:55:20.134Z,5.47
2019-06-26T00:57:48.241Z,5.42
2019-06-26T01:00:16.515Z,5.00
2019-06-26T01:02:44.825Z,5.42
2019-06-26T01:05:13.816Z,5.42
2019-06-26T01:07:42.091Z,5.22
2019-06-26T01:10:11.077Z,5.55
2019-06-26T01:12:40.669Z,5.40
2019-06-26T01:15:10.285Z,5.10
2019-06-26T01:17:38.513Z,5.20
2019-06-26T01:20:06.681Z,5.33
2019-06-26T01:22:34.908Z,5.90
2019-06-26T01:25:06.465Z,5.20
2019-06-26T01:27:34.802Z,5.25
2019-06-26T01:30:04.383Z,5.40
2019-06-26T01:32:34.082Z,5.50
2019-06-26T01:35:02.397Z,6.50
2019-06-26T01:37:30.637Z,5.60
2019-06-26T01:39:58.953Z,6.03
2019-06-26T01:42:27.070Z,5.33
2019-06-26T01:44:55.222Z,5.15
2019-06-26T01:47:23.459Z,6.08
2019-06-26T01:49:51.572Z,5.60
2019-06-26T01:52:19.662Z,6.17
2019-06-26T01:54:47.969Z,5.87
2019-06-26T01:57:16.079Z,5.15
2019-06-26T01:59:44.454Z,5.42
2019-06-26T02:02:12.615Z,5.30
2019-06-26T02:04:40.813Z,5.65
2019-06-26T02:07:08.909Z,5.20
2019-06-26T02:09:37.086Z,6.10
2019-06-26T02:12:05.289Z,5.55
2019-06-26T02:14:33.409Z,5.78
2019-06-26T02:17:01.600Z,5.70
2019-06-26T02:19:29.821Z,5.58
2019-06-26T02:21:57.978Z,5.60
2019-06-26T02:24:26.206Z,5.90
2019-06-26T02:26:54.396Z,5.83
2019-06-26T02:29:22.645Z,6.33
2019-06-26T02:31:50.750Z,5.72
2019-06-26T02:34:18.961Z,6.22
2019-06-26T02:36:47.159Z,6.30
2019-06-26T02:39:15.369Z,6.03
2019-06-26T02:41:43.528Z,5.95
2019-06-26T02:44:11.759Z,5.90
2019-06-26T02:46:39.955Z,6.25
2019-06-26T02:49:08.163Z,5.85
2019-06-26T02:51:36.345Z,5.83
2019-06-26T02:54:05.038Z,5.45
2019-06-26T02:56:33.218Z,5.65
2019-06-26T02:59:01.376Z,5.65
2019-06-26T03:01:29.532Z,5.92
2019-06-26T03:03:57.753Z,5.80
2019-06-26T03:06:25.850Z,6.58
2019-06-26T03:08:54.038Z,6.20
2019-06-26T03:11:22.223Z,5.67
2019-06-26T03:13:50.436Z,5.47
2019-06-26T03:16:18.578Z,5.53
2019-06-26T03:18:48.825Z,5.60
2019-06-26T03:21:16.921Z,5.65
2019-06-26T03:23:46.079Z,5.72
2019-06-26T03:26:14.282Z,6.15
2019-06-26T03:28:42.505Z,6.30
2019-06-26T03:31:10.707Z,6.33
2019-06-26T03:33:38.836Z,6.12
2019-06-26T03:36:08.083Z,6.70
2019-06-26T03:38:36.303Z,6.12
2019-06-26T03:41:04.511Z,5.92
2019-06-26T03:43:35.299Z,6.12
2019-06-26T03:46:02.459Z,5.80
2019-06-26T03:48:30.610Z,5.75
2019-06-26T03:50:58.771Z,6.78
2019-06-26T03:53:29.811Z,6.20
2019-06-26T03:55:57.886Z,6.90
2019-06-26T03:58:26.186Z,6.55
2019-06-26T04:00:54.301Z,6.42
2019-06-26T04:03:22.564Z,6.70
2019-06-26T04:05:50.758Z,6.40
2019-06-26T04:08:19.005Z,6.28
2019-06-26T04:10:48.188Z,6.75
2019-06-26T04:13:16.475Z,6.85
2019-06-26T04:15:44.744Z,7.17
2019-06-26T04:18:14.204Z,6.80
2019-06-26T04:20:42.620Z,6.58
2019-06-26T04:23:10.837Z,6.25
2019-06-26T04:25:41.552Z,6.40
2019-06-26T04:28:09.848Z,6.58
2019-06-26T05:54:57.897Z,6.15
2019-06-26T05:57:26.396Z,6.78
2019-06-26T05:59:54.890Z,7.03
2019-06-26T06:02:23.525Z,6.37
2019-06-26T06:04:52.262Z,6.53
2019-06-26T06:07:20.800Z,6.08
2019-06-26T06:09:49.169Z,6.33
2019-06-26T06:12:17.553Z,5.83
2019-06-26T06:14:49.810Z,8.43
2019-06-26T06:17:20.063Z,6.53
2019-06-26T06:19:48.698Z,6.17
2019-06-26T06:22:17.128Z,6.25
2019-06-26T06:24:45.585Z,6.45
2019-06-26T06:27:14.057Z,6.92
2019-06-26T06:29:42.537Z,6.42
2019-06-26T06:32:11.686Z,6.47
2019-06-26T06:34:40.097Z,6.22
2019-06-26T06:37:08.501Z,6.90
2019-06-26T06:39:36.941Z,7.35
2019-06-26T06:42:05.228Z,7.00
2019-06-26T06:44:33.644Z,6.95
2019-06-26T06:47:04.388Z,6.53
2019-06-26T06:49:32.336Z,7.08
2019-06-26T06:52:00.624Z,6.22
2019-06-26T06:54:29.057Z,6.80
2019-06-26T06:56:57.450Z,6.87
2019-06-26T06:59:26.527Z,6.60
2019-06-26T07:01:54.925Z,6.35
2019-06-26T07:04:23.300Z,6.65
2019-06-26T07:06:51.777Z,6.85
2019-06-26T07:09:20.737Z,6.60
2019-06-26T07:11:49.236Z,7.42
2019-06-26T07:14:17.529Z,7.60
2019-06-26T07:16:46.162Z,6.70
2019-06-26T07:19:14.529Z,7.17
2019-06-26T07:21:43.280Z,7.10
2019-06-26T07:24:11.741Z,6.95
2019-06-26T07:26:40.364Z,6.95
2019-06-26T07:29:08.668Z,6.40
2019-06-26T07:31:40.017Z,7.10
2019-06-26T07:34:09.138Z,7.65
2019-06-26T07:36:37.490Z,6.37
2019-06-26T07:39:19.291Z,7.60
2019-06-26T07:41:47.636Z,6.83
2019-06-26T07:44:16.342Z,7.60
2019-06-26T07:46:44.976Z,7.40
2019-06-26T07:49:13.322Z,6.60
2019-06-26T07:51:41.785Z,6.70
2019-06-26T07:54:10.147Z,6.75
2019-06-26T07:56:38.494Z,7.72
2019-06-26T07:59:07.095Z,6.28
2019-06-26T08:01:35.412Z,7.05
2019-06-26T08:04:04.065Z,7.05
2019-06-26T08:06:32.642Z,8.00
2019-06-26T08:09:00.986Z,8.05
2019-06-26T08:11:29.450Z,7.25
2019-06-26T08:13:59.101Z,7.35
2019-06-26T08:16:28.266Z,7.97
2019-06-26T08:18:56.757Z,8.03
2019-06-26T08:21:25.280Z,7.78
2019-06-26T08:23:53.840Z,8.35
2019-06-26T08:26:22.484Z,8.10
2019-06-26T08:28:51.443Z,8.15
2019-06-26T08:31:20.021Z,8.55
2019-06-26T08:33:48.483Z,8.73
2019-06-26T08:36:16.824Z,9.13
2019-06-26T08:38:46.446Z,8.15
2019-06-26T08:41:14.908Z,8.88
2019-06-26T08:43:43.410Z,8.75
2019-06-26T08:46:12.128Z,9.30
2019-06-26T08:48:40.958Z,9.58
2019-06-26T08:51:09.468Z,8.78
2019-06-26T08:53:43.161Z,9.18
2019-06-26T08:56:12.546Z,8.85
2019-06-26T08:58:45.233Z,9.30
2019-06-26T09:01:14.455Z,9.00
2019-06-26T09:03:43.046Z,10.03
2019-06-26T09:06:11.603Z,9.23
2019-06-26T09:08:40.213Z,10.18
2019-06-26T09:11:08.662Z,10.70
2019-06-26T09:13:37.237Z,9.93
2019-06-26T09:16:05.581Z,10.53
2019-06-26T09:18:35.768Z,10.03
2019-06-26T09:21:04.413Z,10.48
2019-06-26T09:23:32.791Z,9.38
2019-06-26T09:26:01.193Z,8.83
2019-06-26T09:28:29.564Z,9.75
2019-06-26T09:30:57.892Z,9.50
2019-06-26T09:33:26.475Z,9.88
2019-06-26T09:35:54.819Z,9.75
2019-06-26T09:38:23.330Z,9.98
2019-06-26T09:40:51.730Z,9.70
2019-06-26T09:43:20.187Z,10.00
2019-06-26T09:45:48.615Z,9.65
2019-06-26T09:48:17.025Z,10.45
2019-06-26T09:50:45.317Z,10.08
2019-06-26T09:53:13.742Z,10.50
2019-06-26T09:55:42.204Z,9.80
2019-06-26T09:58:13.129Z,10.30
2019-06-26T10:00:40.959Z,10.43
2019-06-26T10:03:09.497Z,10.18
2019-06-26T10:05:38.086Z,10.70
2019-06-26T10:08:06.587Z,9.73
2019-06-26T10:10:35.097Z,10.40
2019-06-26T10:13:03.731Z,10.70
2019-06-26T10:15:32.185Z,10.38
2019-06-26T10:18:00.605Z,10.20
2019-06-26T10:20:28.967Z,10.78
2019-06-26T10:22:57.507Z,10.18
2019-06-26T10:25:25.974Z,9.53
2019-06-26T10:27:54.776Z,10.28
2019-06-26T10:30:23.344Z,9.68
2019-06-26T10:32:51.906Z,9.95
2019-06-26T10:35:20.894Z,9.85
2019-06-26T10:37:49.296Z,10.05
2019-06-26T10:40:17.852Z,10.03
2019-06-26T10:42:46.234Z,9.50
2019-06-26T10:45:15.341Z,10.08
2019-06-26T10:47:43.970Z,9.88
2019-06-26T10:50:14.324Z,9.75
2019-06-26T10:52:42.644Z,10.10
2019-06-26T10:55:11.302Z,9.40
2019-06-26T10:57:39.626Z,9.43
2019-06-26T11:00:09.326Z,10.08
2019-06-26T11:02:37.751Z,9.05
2019-06-26T11:05:06.641Z,8.80
2019-06-26T11:07:36.612Z,9.38
2019-06-26T11:10:06.124Z,10.88
2019-06-26T11:12:34.612Z,12.65
2019-06-26T11:15:03.283Z,10.63
2019-06-26T11:17:31.646Z,10.65
2019-06-26T11:20:00.365Z,9.75
2019-06-26T11:22:28.701Z,9.35
2019-06-26T11:24:57.065Z,10.08
2019-06-26T11:27:25.465Z,11.28
2019-06-26T11:29:53.879Z,10.43
2019-06-26T11:32:22.198Z,10.00
2019-06-26T11:34:50.572Z,9.33
2019-06-26T11:37:22.635Z,8.60
2019-06-26T11:39:49.177Z,8.88
2019-06-26T11:42:17.780Z,8.25
2019-06-26T11:44:46.081Z,9.20
2019-06-26T11:47:14.539Z,9.43
2019-06-26T11:49:55.892Z,9.70
2019-06-26T11:52:13.490Z,9.30
2019-06-26T11:54:41.907Z,9.05
2019-06-26T11:57:10.287Z,9.25
2019-06-26T11:59:38.734Z,9.78
2019-06-26T12:02:08.330Z,9.43
2019-06-26T12:04:37.098Z,8.98
2019-06-26T12:07:05.449Z,9.68
2019-06-26T12:09:34.060Z,9.43
2019-06-26T12:12:02.447Z,9.53
2019-06-26T12:14:31.963Z,9.20
2019-06-26T12:17:00.407Z,9.75
2019-06-26T12:19:28.844Z,8.73
2019-06-26T12:21:57.346Z,9.20
2019-06-26T12:24:26.726Z,8.43
2019-06-26T12:26:55.275Z,9.05
2019-06-26T12:29:23.667Z,8.53
2019-06-26T12:31:52.263Z,8.98
2019-06-26T12:34:21.511Z,8.03
2019-06-26T12:36:49.971Z,8.55
2019-06-26T12:39:18.444Z,8.55
2019-06-26T12:41:46.904Z,8.23
2019-06-26T12:44:15.363Z,7.78
2019-06-26T12:46:43.775Z,7.33
2019-06-26T12:49:12.162Z,7.50
2019-06-26T12:51:40.704Z,7.75
2019-06-26T12:54:09.070Z,8.68
2019-06-26T12:56:37.646Z,7.70
2019-06-26T12:59:06.056Z,7.92
2019-06-26T13:01:34.471Z,7.90
2019-06-26T13:04:02.875Z,6.67
2019-06-26T13:06:31.296Z,7.20
2019-06-26T13:08:59.740Z,7.62
2019-06-26T13:11:28.103Z,7.62
2019-06-26T13:14:02.763Z,6.85
2019-06-26T13:16:26.995Z,7.08
2019-06-26T13:18:55.276Z,7.47
2019-06-26T13:21:23.791Z,7.65
2019-06-26T13:23:52.191Z,7.22
2019-06-26T13:26:20.903Z,6.72
2019-06-26T13:28:49.721Z,7.60
2019-06-26T13:31:18.120Z,7.50
2019-06-26T13:33:46.614Z,6.80
2019-06-26T13:36:15.155Z,7.05
2019-06-26T13:38:44.032Z,7.33
2019-06-26T13:41:12.548Z,7.20
2019-06-26T13:43:40.923Z,7.20
2019-06-26T13:46:09.364Z,6.87
2019-06-26T13:48:37.994Z,7.05
2019-06-26T13:51:09.881Z,8.08
2019-06-26T13:53:36.795Z,7.80
2019-06-26T13:56:05.171Z,7.58
2019-06-26T13:58:33.454Z,8.03
2019-06-26T14:01:01.953Z,7.33
2019-06-26T14:03:30.264Z,7.67
2019-06-26T14:05:58.683Z,7.62
2019-06-26T14:08:28.169Z,8.10
2019-06-26T14:10:56.595Z,7.72
2019-06-26T14:13:25.073Z,8.88
2019-06-26T14:15:53.628Z,8.65
2019-06-26T14:18:22.062Z,8.03
2019-06-26T14:20:50.547Z,7.00
2019-06-26T14:23:18.815Z,8.23
2019-06-26T14:25:47.280Z,7.22
2019-06-26T14:28:17.481Z,7.45
2019-06-26T14:30:50.565Z,7.85
2019-06-26T14:33:21.567Z,7.92
2019-06-26T14:35:50.676Z,7.97
2019-06-26T14:38:20.798Z,8.75
2019-06-26T14:40:49.227Z,8.20
2019-06-26T14:43:17.677Z,8.13
2019-06-26T14:45:46.689Z,8.23
2019-06-26T14:48:18.308Z,7.58
2019-06-26T14:50:48.381Z,8.35
2019-06-26T14:53:20.757Z,7.40
2019-06-26T14:55:54.092Z,8.13
2019-06-26T14:58:22.571Z,8.15
2019-06-26T15:00:53.546Z,7.87
2019-06-26T15:03:22.945Z,8.43
2019-06-26T15:05:51.451Z,7.85
2019-06-26T15:08:21.508Z,8.48
2019-06-26T15:10:49.949Z,8.80
2019-06-26T15:13:21.766Z,8.30
2019-06-26T15:15:54.620Z,7.55
2019-06-26T15:18:22.016Z,8.43
2019-06-26T15:20:51.822Z,7.90
2019-06-26T15:23:21.437Z,7.90
2019-06-26T15:25:52.375Z,7.80
2019-06-26T15:28:22.633Z,7.95
2019-06-26T15:30:52.135Z,7.62
2019-06-26T15:33:20.520Z,7.10
2019-06-26T15:35:49.716Z,7.42
2019-06-26T15:38:19.790Z,7.70
2019-06-26T15:40:49.268Z,7.22
2019-06-26T15:43:18.804Z,7.83
2019-06-26T15:45:49.775Z,7.53
2019-06-26T15:48:19.552Z,6.60
2019-06-26T15:50:49.286Z,6.45
2019-06-26T15:53:18.450Z,6.53
2019-06-26T15:55:47.952Z,6.90
2019-06-26T15:58:16.736Z,6.62
2019-06-26T16:00:45.941Z,6.00
2019-06-26T16:03:15.184Z,6.00
2019-06-26T16:05:44.041Z,6.42
2019-06-26T16:08:12.407Z,6.97
2019-06-26T16:10:45.837Z,6.37
2019-06-26T16:13:17.192Z,6.25
2019-06-26T16:15:45.589Z,5.97
2019-06-26T16:47:13.968Z,6.30
2019-06-26T16:49:43.376Z,6.45
2019-06-26T16:52:12.464Z,6.20
2019-06-26T16:54:41.901Z,6.60
2019-06-26T16:57:10.900Z,6.55
2019-06-26T16:59:39.717Z,6.00
2019-06-26T17:02:08.989Z,6.62
2019-06-26T17:04:37.347Z,5.90
2019-06-26T17:07:06.895Z,6.30
2019-06-26T17:09:35.751Z,6.00
2019-06-26T17:12:04.554Z,5.45
2019-06-26T17:14:37.628Z,6.30
2019-06-26T17:17:06.643Z,5.95
2019-06-26T17:19:34.963Z,6.83
2019-06-26T17:22:04.696Z,7.90
2019-06-26T17:24:33.027Z,6.67
2019-06-26T17:27:06.113Z,6.15
2019-06-26T17:29:34.661Z,6.75
2019-06-26T17:32:04.185Z,6.97
2019-06-26T17:34:32.522Z,7.17
2019-06-26T17:37:01.567Z,6.83
2019-06-26T17:39:30.066Z,6.37
2019-06-26T17:41:58.980Z,6.30
2019-06-26T17:44:27.746Z,6.30
2019-06-26T17:46:56.504Z,6.80
2019-06-26T17:49:25.991Z,6.65
2019-06-26T17:51:54.799Z,6.90
2019-06-26T17:54:24.006Z,6.53
2019-06-26T17:56:53.193Z,6.78
2019-06-26T17:59:21.929Z,6.25
2019-06-26T18:01:51.513Z,6.92
2019-06-26T18:04:26.815Z,7.08
2019-06-26T18:06:55.277Z,7.33
2019-06-26T18:09:24.000Z,7.67
2019-06-26T18:11:52.525Z,6.87
2019-06-26T18:14:20.846Z,6.90
2019-06-26T18:16:49.534Z,6.95
2019-06-26T18:19:18.600Z,6.70
2019-06-26T18:21:47.886Z,6.67
2019-06-26T18:24:16.560Z,6.95
2019-06-26T18:26:57.722Z,7.20
2019-06-26T18:29:27.373Z,6.72
2019-06-26T18:31:55.962Z,7.17
2019-06-26T18:34:25.152Z,6.40
2019-06-26T18:36:53.469Z,6.37
2019-06-26T18:39:22.327Z,6.97
2019-06-26T18:42:03.354Z,7.08
2019-06-26T18:44:31.845Z,6.80
2019-06-26T18:47:00.756Z,6.72
2019-06-26T18:49:29.489Z,6.75
2019-06-26T18:51:58.177Z,6.58
2019-06-26T18:54:29.001Z,6.60
2019-06-26T18:56:57.450Z,6.70
2019-06-26T18:59:25.785Z,7.35
2019-06-26T19:01:54.920Z,7.58
2019-06-26T19:04:23.842Z,7.37
2019-06-26T19:06:53.301Z,6.78
2019-06-26T19:09:21.792Z,7.30
2019-06-26T19:11:50.412Z,7.10
2019-06-26T19:14:19.357Z,6.90
2019-06-26T19:16:48.061Z,7.60
2019-06-26T19:19:16.965Z,7.65
2019-06-26T19:21:45.785Z,7.75
2019-06-26T19:24:15.289Z,7.80
2019-06-26T19:26:49.410Z,7.50
2019-06-26T19:29:19.353Z,8.28
2019-06-26T19:31:50.383Z,8.65
2019-06-26T19:34:19.516Z,7.53
2019-06-26T19:36:50.315Z,7.55
2019-06-26T19:39:21.083Z,8.10
2019-06-26T19:41:51.587Z,7.97
2019-06-26T19:44:20.931Z,8.70
2019-06-26T19:46:50.509Z,8.40
2019-06-26T19:49:19.577Z,8.28
2019-06-26T19:51:48.534Z,7.80
2019-06-26T19:54:27.058Z,8.43
2019-06-26T19:56:49.194Z,7.60
2019-06-26T19:59:18.497Z,7.12
2019-06-26T20:01:51.245Z,7.20
2019-06-26T20:04:19.743Z,7.25
2019-06-26T20:06:49.778Z,7.05
2019-06-26T20:09:19.405Z,6.78
2019-06-26T20:11:48.093Z,6.92
2019-06-26T20:14:17.269Z,7.75
2019-06-26T20:16:46.491Z,7.50
2019-06-26T20:19:15.972Z,7.05
2019-06-26T20:21:44.939Z,7.62
2019-06-26T20:24:14.445Z,7.65
2019-06-26T20:26:44.250Z,6.95
2019-06-26T20:29:13.494Z,7.60
2019-06-26T20:31:42.387Z,7.35
2019-06-26T20:34:11.180Z,7.53
2019-06-26T20:36:40.976Z,7.22
2019-06-26T20:39:11.019Z,7.30
2019-06-26T20:41:40.779Z,7.42
2019-06-26T20:44:09.518Z,7.15
2019-06-26T20:46:38.626Z,7.45
2019-06-26T20:49:07.753Z,7.78
2019-06-26T20:51:37.521Z,7.22
2019-06-26T20:54:12.155Z,7.72
2019-06-26T20:57:00.242Z,6.47
2019-06-26T20:59:30.245Z,6.80
2019-06-26T21:01:59.375Z,6.85
2019-06-26T21:04:32.158Z,6.97
2019-06-26T21:07:01.916Z,6.83
2019-06-26T21:09:30.464Z,7.90
2019-06-26T21:11:59.740Z,6.60
2019-06-26T21:14:28.505Z,7.58
2019-06-26T21:16:57.754Z,7.50
2019-06-26T21:19:26.403Z,7.17
2019-06-26T21:21:55.201Z,6.60
2019-06-26T21:24:24.195Z,7.33
2019-06-26T21:26:53.717Z,6.85
2019-06-26T21:29:23.881Z,7.00
2019-06-26T21:31:52.736Z,7.50
2019-06-26T21:34:23.376Z,7.60
2019-06-26T21:36:54.711Z,7.75
2019-06-26T21:39:27.202Z,7.03
2019-06-26T21:41:55.600Z,7.12
2019-06-26T21:44:24.954Z,7.30
2019-06-26T21:46:53.414Z,7.22
2019-06-26T21:49:22.376Z,7.40
2019-06-26T21:51:51.073Z,7.05
2019-06-26T21:54:19.722Z,7.35
2019-06-26T21:57:09.266Z,7.55
2019-06-26T21:59:55.258Z,8.50
2019-06-26T22:02:42.568Z,7.35
2019-06-26T22:05:13.642Z,7.40
2019-06-26T22:07:44.451Z,6.40
2019-06-26T22:10:20.673Z,7.35
2019-06-26T22:12:49.561Z,6.42
2019-06-26T22:15:20.070Z,7.70
2019-06-26T22:17:50.890Z,7.12
2019-06-26T22:20:20.375Z,7.55
2019-06-26T22:22:48.885Z,6.90
2019-06-26T22:25:18.095Z,7.75
2019-06-26T22:27:47.039Z,7.40
2019-06-26T22:30:17.257Z,7.72
2019-06-26T22:32:46.002Z,7.97
2019-06-26T22:35:14.883Z,8.30
2019-06-26T22:37:43.922Z,8.85
2019-06-26T22:40:13.851Z,7.62
2019-06-26T22:42:45.154Z,7.95
2019-06-26T22:45:13.879Z,7.58
2019-06-26T22:47:42.407Z,6.20
2019-06-26T22:50:11.522Z,7.10
2019-06-26T22:52:39.876Z,7.17
2019-06-26T22:55:09.551Z,7.20
2019-06-26T22:57:37.969Z,7.10
2019-06-26T23:00:07.027Z,6.60
2019-06-26T23:02:37.274Z,6.95
2019-06-26T23:05:05.801Z,7.08
2019-06-26T23:07:34.225Z,7.47
2019-06-26T23:10:02.725Z,6.67
2019-06-26T23:12:31.269Z,7.53
2019-06-26T23:14:59.675Z,7.10
2019-06-26T23:17:28.024Z,7.00
2019-06-26T23:19:56.379Z,6.30
2019-06-26T23:22:24.735Z,7.12
2019-06-26T23:24:53.202Z,6.50
2019-06-26T23:27:21.557Z,6.92
2019-06-26T23:29:50.323Z,6.87
2019-06-26T23:32:19.246Z,7.10
2019-06-26T23:34:48.165Z,6.70
2019-06-26T23:37:16.585Z,6.65
2019-06-26T23:39:45.995Z,7.42
2019-06-26T23:42:14.426Z,6.37
2019-06-26T23:44:42.786Z,7.28
2019-06-26T23:47:11.447Z,6.40
2019-06-26T23:49:40.402Z,7.20
2019-06-26T23:52:09.121Z,6.72
2019-06-26T23:54:37.428Z,6.78
2019-06-26T23:57:06.622Z,7.35
2019-06-26T23:59:35.226Z,7.55
